Gordon V.sr. — WDB8505 — position and weather

sailwx.info

Track history (hours):
 
Tides and Currents Weather Stations Pressure Air Temp Water Temp Dewpoint Dewpoint Depression Visibility Wind Speed Wind Dir Waves Ship Positions

Gordon V.sr.

Owner: B&G TOWING L.L.C., Lafitte, LA. More information available from US FCC via Universal Licensing System and Coast Guard Vessel Documentation Center.

Last reported at 2015-Dec-31 11:33 UTC. Time now 2016-Feb-14 10:10 UTC.
Position N 29°34' W 090°32'.
Warning: this ship's position is 44 days out of date.

MMSI: 365910942.

Date/timePositionNaut miles runAvg speedWind from/ knotsBaromVisibWave heightAir tempDewpointWater temp
2015-Dec-31 11:33N 29°34' W 090°32'3 3.3
2015-Dec-31 10:33N 29°35' W 090°36'3 3.3
2015-Dec-31 09:33N 29°36' W 090°39'3 2.8
2015-Dec-31 08:33N 29°36' W 090°43'3 3.0
2015-Dec-31 07:33N 29°34' W 090°44'3 3.2
2015-Dec-31 06:33N 29°32' W 090°47'5 3.9
2015-Dec-31 05:22N 29°32' W 090°53'3 3.9
2015-Dec-31 04:33N 29°34' W 090°56'  
2015-Dec-28 19:18N 29°34' W 090°56'3 3.3
2015-Dec-28 18:28N 29°32' W 090°53'3 3.6
2015-Dec-28 17:32N 29°32' W 090°49'2 2.4
2015-Dec-28 16:33N 29°32' W 090°46'3 3.0
2015-Dec-28 15:33N 29°34' W 090°43'3 2.5
2015-Dec-28 14:33N 29°36' W 090°43'3 3.3
2015-Dec-28 13:33N 29°36' W 090°39'3 3.0
2015-Dec-28 12:33N 29°35' W 090°36'0 0.0
2015-Dec-28 11:33N 29°35' W 090°36'0 0.0
2015-Dec-28 10:33N 29°35' W 090°36'0 0.0
2015-Dec-28 09:33N 29°35' W 090°36'0 0.0
2015-Dec-28 08:33N 29°35' W 090°36'0 0.0
2015-Dec-28 07:33N 29°35' W 090°36'0 0.0
2015-Dec-28 06:33N 29°35' W 090°36'0 0.0
2015-Dec-28 05:33N 29°35' W 090°36'0 0.0
2015-Dec-28 04:33N 29°35' W 090°36'0 0.0
2015-Dec-28 03:33N 29°35' W 090°36'0 0.0
2015-Dec-28 02:33N 29°35' W 090°36'0 0.0
2015-Dec-28 01:33N 29°35' W 090°36'0 0.0
2015-Dec-28 00:33N 29°35' W 090°36'0 0.0
2015-Dec-27 23:33N 29°35' W 090°36'0 0.0
2015-Dec-27 22:33N 29°35' W 090°36'0 0.0
2015-Dec-27 21:33N 29°35' W 090°36'0 0.0
2015-Dec-27 20:33N 29°35' W 090°36'0 0.0
2015-Dec-27 19:33N 29°35' W 090°36'0 0.0
2015-Dec-27 18:33N 29°35' W 090°36'0 0.0
2015-Dec-27 17:33N 29°35' W 090°36'0 0.0
2015-Dec-27 16:33N 29°35' W 090°36'0 0.0
2015-Dec-27 15:33N 29°35' W 090°36'0 0.0
2015-Dec-27 14:33N 29°35' W 090°36'0 0.0
2015-Dec-27 13:33N 29°35' W 090°36'0 0.0
2015-Dec-27 12:33N 29°35' W 090°36'0 0.0
2015-Dec-27 11:33N 29°35' W 090°36'0 0.0
2015-Dec-27 10:33N 29°35' W 090°36'0 0.0
2015-Dec-27 09:33N 29°35' W 090°36'0 0.0
2015-Dec-27 08:33N 29°35' W 090°36'0 0.0
2015-Dec-27 07:33N 29°35' W 090°36'0 0.0
2015-Dec-27 06:33N 29°35' W 090°36'0 0.0
2015-Dec-27 05:33N 29°35' W 090°36'0 0.0
2015-Dec-27 04:33N 29°35' W 090°36'0 0.0
2015-Dec-27 03:33N 29°35' W 090°36'2 2.5
2015-Dec-27 02:33N 29°34' W 090°33'  
2015-Dec-24 02:28N 29°34' W 090°33'3 3.0
2015-Dec-24 01:33N 29°35' W 090°36'1 1.4
2015-Dec-24 00:33N 29°35' W 090°38'3 3.1
2015-Dec-23 23:33N 29°36' W 090°41'2 2.4
2015-Dec-23 22:33N 29°35' W 090°43'2 2.2
2015-Dec-23 21:33N 29°33' W 090°45'2 1.5
2015-Dec-23 20:33N 29°32' W 090°46'4 4.0
2015-Dec-23 19:33N 29°32' W 090°51'4 3.7
2015-Dec-23 18:29N 29°33' W 090°55'  
Track history (hours):
 
Tides and Currents Weather Stations Pressure Air Temp Water Temp Dewpoint Dewpoint Depression Visibility Wind Speed Wind Dir Waves Ship Positions

Gordon V.sr.

Owner: B&G TOWING L.L.C., Lafitte, LA. More information available from US FCC via Universal Licensing System and Coast Guard Vessel Documentation Center.

Last reported at 2015-Dec-31 11:33 UTC. Time now 2016-Feb-14 10:10 UTC.
Position N 29°34' W 090°32'.
Warning: this ship's position is 44 days out of date.

MMSI: 365910942.

Date/timePositionNaut miles runAvg speedWind from/ knotsBaromVisibWave heightAir tempDewpointWater temp
2015-Dec-31 11:33N 29°34' W 090°32'3 3.3
2015-Dec-31 10:33N 29°35' W 090°36'3 3.3
2015-Dec-31 09:33N 29°36' W 090°39'3 2.8
2015-Dec-31 08:33N 29°36' W 090°43'3 3.0
2015-Dec-31 07:33N 29°34' W 090°44'3 3.2
2015-Dec-31 06:33N 29°32' W 090°47'5 3.9
2015-Dec-31 05:22N 29°32' W 090°53'3 3.9
2015-Dec-31 04:33N 29°34' W 090°56'  
2015-Dec-28 19:18N 29°34' W 090°56'3 3.3
2015-Dec-28 18:28N 29°32' W 090°53'3 3.6
2015-Dec-28 17:32N 29°32' W 090°49'2 2.4
2015-Dec-28 16:33N 29°32' W 090°46'3 3.0
2015-Dec-28 15:33N 29°34' W 090°43'3 2.5
2015-Dec-28 14:33N 29°36' W 090°43'3 3.3
2015-Dec-28 13:33N 29°36' W 090°39'3 3.0
2015-Dec-28 12:33N 29°35' W 090°36'0 0.0
2015-Dec-28 11:33N 29°35' W 090°36'0 0.0
2015-Dec-28 10:33N 29°35' W 090°36'0 0.0
2015-Dec-28 09:33N 29°35' W 090°36'0 0.0
2015-Dec-28 08:33N 29°35' W 090°36'0 0.0
2015-Dec-28 07:33N 29°35' W 090°36'0 0.0
2015-Dec-28 06:33N 29°35' W 090°36'0 0.0
2015-Dec-28 05:33N 29°35' W 090°36'0 0.0
2015-Dec-28 04:33N 29°35' W 090°36'0 0.0
2015-Dec-28 03:33N 29°35' W 090°36'0 0.0
2015-Dec-28 02:33N 29°35' W 090°36'0 0.0
2015-Dec-28 01:33N 29°35' W 090°36'0 0.0
2015-Dec-28 00:33N 29°35' W 090°36'0 0.0
2015-Dec-27 23:33N 29°35' W 090°36'0 0.0
2015-Dec-27 22:33N 29°35' W 090°36'0 0.0
2015-Dec-27 21:33N 29°35' W 090°36'0 0.0
2015-Dec-27 20:33N 29°35' W 090°36'0 0.0
2015-Dec-27 19:33N 29°35' W 090°36'0 0.0
2015-Dec-27 18:33N 29°35' W 090°36'0 0.0
2015-Dec-27 17:33N 29°35' W 090°36'0 0.0
2015-Dec-27 16:33N 29°35' W 090°36'0 0.0
2015-Dec-27 15:33N 29°35' W 090°36'0 0.0
2015-Dec-27 14:33N 29°35' W 090°36'0 0.0
2015-Dec-27 13:33N 29°35' W 090°36'0 0.0
2015-Dec-27 12:33N 29°35' W 090°36'0 0.0
2015-Dec-27 11:33N 29°35' W 090°36'0 0.0
2015-Dec-27 10:33N 29°35' W 090°36'0 0.0
2015-Dec-27 09:33N 29°35' W 090°36'0 0.0
2015-Dec-27 08:33N 29°35' W 090°36'0 0.0
2015-Dec-27 07:33N 29°35' W 090°36'0 0.0
2015-Dec-27 06:33N 29°35' W 090°36'0 0.0
2015-Dec-27 05:33N 29°35' W 090°36'0 0.0
2015-Dec-27 04:33N 29°35' W 090°36'0 0.0
2015-Dec-27 03:33N 29°35' W 090°36'2 2.5
2015-Dec-27 02:33N 29°34' W 090°33'  
2015-Dec-24 02:28N 29°34' W 090°33'3 3.0
2015-Dec-24 01:33N 29°35' W 090°36'1 1.4
2015-Dec-24 00:33N 29°35' W 090°38'3 3.1
2015-Dec-23 23:33N 29°36' W 090°41'2 2.4
2015-Dec-23 22:33N 29°35' W 090°43'2 2.2
2015-Dec-23 21:33N 29°33' W 090°45'2 1.5
2015-Dec-23 20:33N 29°32' W 090°46'4 4.0
2015-Dec-23 19:33N 29°32' W 090°51'4 3.7
2015-Dec-23 18:29N 29°33' W 090°55'  

Dump ship's entire track history